sensor_id;sensor_type;location;lat;lon;timestamp;P1;durP1;ratioP1;P2;durP2;ratioP2
15114;SDS011;7658;51.456;7.622;2023-07-30T00:01:56;11.95;;;8.50;;
15114;SDS011;7658;51.456;7.622;2023-07-30T00:04:22;11.75;;;9.15;;
15114;SDS011;7658;51.456;7.622;2023-07-30T00:06:48;13.02;;;9.55;;
15114;SDS011;7658;51.456;7.622;2023-07-30T00:09:14;15.93;;;9.73;;
15114;SDS011;7658;51.456;7.622;2023-07-30T00:11:40;13.45;;;9.20;;
15114;SDS011;7658;51.456;7.622;2023-07-30T00:14:05;15.30;;;8.77;;
15114;SDS011;7658;51.456;7.622;2023-07-30T00:16:31;12.35;;;9.27;;
15114;SDS011;7658;51.456;7.622;2023-07-30T00:18:57;13.02;;;8.90;;
15114;SDS011;7658;51.456;7.622;2023-07-30T00:21:23;12.20;;;9.10;;
15114;SDS011;7658;51.456;7.622;2023-07-30T00:23:48;14.60;;;9.07;;
15114;SDS011;7658;51.456;7.622;2023-07-30T00:26:14;11.77;;;9.00;;
15114;SDS011;7658;51.456;7.622;2023-07-30T00:28:40;12.57;;;8.27;;
15114;SDS011;7658;51.456;7.622;2023-07-30T00:31:06;11.82;;;8.05;;
15114;SDS011;7658;51.456;7.622;2023-07-30T00:33:31;14.30;;;8.88;;
15114;SDS011;7658;51.456;7.622;2023-07-30T00:35:57;12.32;;;8.07;;
15114;SDS011;7658;51.456;7.622;2023-07-30T00:38:23;16.60;;;8.65;;
15114;SDS011;7658;51.456;7.622;2023-07-30T00:40:49;14.27;;;9.45;;
15114;SDS011;7658;51.456;7.622;2023-07-30T00:43:14;15.50;;;9.00;;
15114;SDS011;7658;51.456;7.622;2023-07-30T00:45:41;15.95;;;8.73;;
15114;SDS011;7658;51.456;7.622;2023-07-30T00:48:09;12.75;;;8.80;;
15114;SDS011;7658;51.456;7.622;2023-07-30T00:50:39;14.38;;;8.35;;
15114;SDS011;7658;51.456;7.622;2023-07-30T00:53:05;13.15;;;7.93;;
15114;SDS011;7658;51.456;7.622;2023-07-30T00:55:33;15.98;;;7.53;;
15114;SDS011;7658;51.456;7.622;2023-07-30T00:58:00;10.05;;;7.28;;
15114;SDS011;7658;51.456;7.622;2023-07-30T01:00:26;10.02;;;7.15;;
15114;SDS011;7658;51.456;7.622;2023-07-30T01:02:53;11.73;;;6.35;;
15114;SDS011;7658;51.456;7.622;2023-07-30T01:05:19;9.70;;;6.25;;
15114;SDS011;7658;51.456;7.622;2023-07-30T01:07:45;8.88;;;6.22;;
15114;SDS011;7658;51.456;7.622;2023-07-30T01:10:11;11.60;;;5.60;;
15114;SDS011;7658;51.456;7.622;2023-07-30T01:12:37;11.13;;;5.90;;
15114;SDS011;7658;51.456;7.622;2023-07-30T01:15:04;15.07;;;6.60;;
15114;SDS011;7658;51.456;7.622;2023-07-30T01:17:30;12.13;;;5.80;;
15114;SDS011;7658;51.456;7.622;2023-07-30T01:19:56;15.63;;;6.00;;
15114;SDS011;7658;51.456;7.622;2023-07-30T01:22:22;11.50;;;5.88;;
15114;SDS011;7658;51.456;7.622;2023-07-30T01:24:49;9.77;;;5.13;;
15114;SDS011;7658;51.456;7.622;2023-07-30T01:27:25;7.38;;;5.38;;
15114;SDS011;7658;51.456;7.622;2023-07-30T01:32:33;10.48;;;5.15;;
15114;SDS011;7658;51.456;7.622;2023-07-30T01:35:00;7.63;;;5.00;;
15114;SDS011;7658;51.456;7.622;2023-07-30T01:37:27;12.27;;;5.28;;
15114;SDS011;7658;51.456;7.622;2023-07-30T01:39:54;12.05;;;5.05;;
15114;SDS011;7658;51.456;7.622;2023-07-30T01:42:21;11.27;;;5.10;;
15114;SDS011;7658;51.456;7.622;2023-07-30T01:44:46;8.55;;;4.85;;
15114;SDS011;7658;51.456;7.622;2023-07-30T01:47:12;11.35;;;5.75;;
15114;SDS011;7658;51.456;7.622;2023-07-30T01:49:38;11.02;;;4.75;;
15114;SDS011;7658;51.456;7.622;2023-07-30T01:52:04;6.93;;;4.35;;
15114;SDS011;7658;51.456;7.622;2023-07-30T01:54:30;9.75;;;5.40;;
15114;SDS011;7658;51.456;7.622;2023-07-30T01:56:55;8.88;;;5.20;;
15114;SDS011;7658;51.456;7.622;2023-07-30T01:59:21;6.20;;;4.55;;
15114;SDS011;7658;51.456;7.622;2023-07-30T02:01:47;7.57;;;5.40;;
15114;SDS011;7658;51.456;7.622;2023-07-30T02:04:12;12.45;;;5.18;;
15114;SDS011;7658;51.456;7.622;2023-07-30T02:06:38;6.70;;;5.32;;
15114;SDS011;7658;51.456;7.622;2023-07-30T02:09:04;10.40;;;5.25;;
15114;SDS011;7658;51.456;7.622;2023-07-30T02:11:30;9.05;;;4.88;;
15114;SDS011;7658;51.456;7.622;2023-07-30T02:13:55;12.23;;;5.35;;
15114;SDS011;7658;51.456;7.622;2023-07-30T02:16:21;7.75;;;5.43;;
15114;SDS011;7658;51.456;7.622;2023-07-30T02:18:47;7.65;;;4.20;;
15114;SDS011;7658;51.456;7.622;2023-07-30T02:21:12;8.55;;;4.93;;
15114;SDS011;7658;51.456;7.622;2023-07-30T02:23:38;6.88;;;4.90;;
15114;SDS011;7658;51.456;7.622;2023-07-30T02:26:04;7.88;;;5.10;;
15114;SDS011;7658;51.456;7.622;2023-07-30T02:28:30;9.00;;;4.95;;
15114;SDS011;7658;51.456;7.622;2023-07-30T02:30:55;15.00;;;5.25;;
15114;SDS011;7658;51.456;7.622;2023-07-30T02:33:21;9.88;;;5.05;;
15114;SDS011;7658;51.456;7.622;2023-07-30T02:35:47;8.80;;;4.47;;
15114;SDS011;7658;51.456;7.622;2023-07-30T02:38:12;8.13;;;4.70;;
15114;SDS011;7658;51.456;7.622;2023-07-30T02:40:38;11.00;;;5.47;;
15114;SDS011;7658;51.456;7.622;2023-07-30T02:43:04;11.55;;;4.85;;
15114;SDS011;7658;51.456;7.622;2023-07-30T02:45:30;5.90;;;4.50;;
15114;SDS011;7658;51.456;7.622;2023-07-30T02:47:55;8.50;;;4.60;;
15114;SDS011;7658;51.456;7.622;2023-07-30T02:50:21;8.15;;;4.50;;
15114;SDS011;7658;51.456;7.622;2023-07-30T02:52:47;5.63;;;4.47;;
15114;SDS011;7658;51.456;7.622;2023-07-30T02:55:12;9.43;;;5.13;;
15114;SDS011;7658;51.456;7.622;2023-07-30T02:57:38;6.78;;;4.75;;
15114;SDS011;7658;51.456;7.622;2023-07-30T03:00:04;9.13;;;5.20;;
15114;SDS011;7658;51.456;7.622;2023-07-30T03:02:30;8.30;;;5.00;;
15114;SDS011;7658;51.456;7.622;2023-07-30T03:04:56;9.65;;;5.03;;
15114;SDS011;7658;51.456;7.622;2023-07-30T03:07:22;9.05;;;5.15;;
15114;SDS011;7658;51.456;7.622;2023-07-30T03:09:48;7.70;;;5.53;;
15114;SDS011;7658;51.456;7.622;2023-07-30T03:12:14;12.38;;;5.45;;
15114;SDS011;7658;51.456;7.622;2023-07-30T03:14:39;8.88;;;5.10;;
15114;SDS011;7658;51.456;7.622;2023-07-30T03:17:05;7.28;;;5.00;;
15114;SDS011;7658;51.456;7.622;2023-07-30T03:19:31;7.85;;;4.75;;
15114;SDS011;7658;51.456;7.622;2023-07-30T03:21:57;7.43;;;4.70;;
15114;SDS011;7658;51.456;7.622;2023-07-30T03:24:23;7.05;;;5.10;;
15114;SDS011;7658;51.456;7.622;2023-07-30T03:26:48;6.53;;;4.65;;
15114;SDS011;7658;51.456;7.622;2023-07-30T03:29:14;8.50;;;4.68;;
15114;SDS011;7658;51.456;7.622;2023-07-30T03:31:41;9.27;;;5.40;;
15114;SDS011;7658;51.456;7.622;2023-07-30T03:34:06;6.38;;;4.80;;
15114;SDS011;7658;51.456;7.622;2023-07-30T03:36:32;8.40;;;5.15;;
15114;SDS011;7658;51.456;7.622;2023-07-30T03:38:58;10.38;;;5.43;;
15114;SDS011;7658;51.456;7.622;2023-07-30T03:41:24;8.63;;;5.25;;
15114;SDS011;7658;51.456;7.622;2023-07-30T03:43:50;5.95;;;4.63;;
15114;SDS011;7658;51.456;7.622;2023-07-30T03:46:16;7.32;;;4.82;;
15114;SDS011;7658;51.456;7.622;2023-07-30T03:48:41;7.22;;;5.25;;
15114;SDS011;7658;51.456;7.622;2023-07-30T03:51:08;7.78;;;4.80;;
15114;SDS011;7658;51.456;7.622;2023-07-30T03:53:34;6.03;;;4.63;;
15114;SDS011;7658;51.456;7.622;2023-07-30T03:55:59;6.15;;;4.47;;
15114;SDS011;7658;51.456;7.622;2023-07-30T03:58:26;5.63;;;4.28;;
15114;SDS011;7658;51.456;7.622;2023-07-30T04:00:51;5.43;;;4.80;;
15114;SDS011;7658;51.456;7.622;2023-07-30T04:03:17;9.63;;;4.47;;
15114;SDS011;7658;51.456;7.622;2023-07-30T04:05:43;8.98;;;4.45;;
15114;SDS011;7658;51.456;7.622;2023-07-30T04:08:08;5.55;;;4.40;;
15114;SDS011;7658;51.456;7.622;2023-07-30T04:10:34;7.45;;;5.25;;
15114;SDS011;7658;51.456;7.622;2023-07-30T04:13:00;11.10;;;5.10;;
15114;SDS011;7658;51.456;7.622;2023-07-30T04:15:26;6.93;;;4.90;;
15114;SDS011;7658;51.456;7.622;2023-07-30T04:17:52;7.65;;;5.10;;
15114;SDS011;7658;51.456;7.622;2023-07-30T04:20:19;8.00;;;5.03;;
15114;SDS011;7658;51.456;7.622;2023-07-30T04:22:44;7.55;;;5.15;;
15114;SDS011;7658;51.456;7.622;2023-07-30T04:25:10;6.85;;;4.78;;
15114;SDS011;7658;51.456;7.622;2023-07-30T04:27:36;10.52;;;5.63;;
15114;SDS011;7658;51.456;7.622;2023-07-30T04:30:03;16.73;;;5.95;;
15114;SDS011;7658;51.456;7.622;2023-07-30T04:32:30;8.23;;;5.10;;
15114;SDS011;7658;51.456;7.622;2023-07-30T04:34:55;9.13;;;5.20;;
15114;SDS011;7658;51.456;7.622;2023-07-30T04:37:21;7.70;;;5.57;;
15114;SDS011;7658;51.456;7.622;2023-07-30T04:39:47;9.85;;;5.07;;
15114;SDS011;7658;51.456;7.622;2023-07-30T04:42:13;8.05;;;4.85;;
15114;SDS011;7658;51.456;7.622;2023-07-30T04:44:40;15.63;;;5.22;;
15114;SDS011;7658;51.456;7.622;2023-07-30T04:47:06;8.20;;;5.10;;
15114;SDS011;7658;51.456;7.622;2023-07-30T04:49:32;7.05;;;5.22;;
15114;SDS011;7658;51.456;7.622;2023-07-30T04:51:58;11.73;;;5.60;;
15114;SDS011;7658;51.456;7.622;2023-07-30T04:54:24;12.77;;;5.50;;
15114;SDS011;7658;51.456;7.622;2023-07-30T04:56:49;14.35;;;5.22;;
15114;SDS011;7658;51.456;7.622;2023-07-30T04:59:15;15.15;;;5.72;;
15114;SDS011;7658;51.456;7.622;2023-07-30T05:01:41;14.35;;;6.28;;
15114;SDS011;7658;51.456;7.622;2023-07-30T05:04:07;13.43;;;6.43;;
15114;SDS011;7658;51.456;7.622;2023-07-30T05:06:32;8.57;;;5.82;;
15114;SDS011;7658;51.456;7.622;2023-07-30T05:08:58;13.02;;;6.15;;
15114;SDS011;7658;51.456;7.622;2023-07-30T05:11:24;19.30;;;8.35;;
15114;SDS011;7658;51.456;7.622;2023-07-30T05:13:49;16.30;;;6.03;;
15114;SDS011;7658;51.456;7.622;2023-07-30T05:16:15;11.20;;;6.20;;
15114;SDS011;7658;51.456;7.622;2023-07-30T05:18:41;13.25;;;6.00;;
15114;SDS011;7658;51.456;7.622;2023-07-30T05:21:07;16.27;;;6.75;;
15114;SDS011;7658;51.456;7.622;2023-07-30T05:23:32;14.15;;;6.28;;
15114;SDS011;7658;51.456;7.622;2023-07-30T05:25:58;11.52;;;6.72;;
15114;SDS011;7658;51.456;7.622;2023-07-30T05:28:24;13.35;;;6.18;;
15114;SDS011;7658;51.456;7.622;2023-07-30T05:30:50;10.65;;;6.65;;
15114;SDS011;7658;51.456;7.622;2023-07-30T05:33:15;13.32;;;6.85;;
15114;SDS011;7658;51.456;7.622;2023-07-30T05:35:41;12.15;;;5.32;;
15114;SDS011;7658;51.456;7.622;2023-07-30T05:38:07;12.13;;;5.70;;
15114;SDS011;7658;51.456;7.622;2023-07-30T05:40:33;10.93;;;6.03;;
15114;SDS011;7658;51.456;7.622;2023-07-30T05:43:00;13.13;;;6.30;;
15114;SDS011;7658;51.456;7.622;2023-07-30T05:45:26;11.98;;;5.13;;
15114;SDS011;7658;51.456;7.622;2023-07-30T05:47:52;19.00;;;6.80;;
15114;SDS011;7658;51.456;7.622;2023-07-30T05:50:18;16.90;;;6.00;;
15114;SDS011;7658;51.456;7.622;2023-07-30T05:52:44;14.07;;;5.85;;
15114;SDS011;7658;51.456;7.622;2023-07-30T05:55:09;11.70;;;5.32;;
15114;SDS011;7658;51.456;7.622;2023-07-30T05:57:36;12.80;;;4.90;;
15114;SDS011;7658;51.456;7.622;2023-07-30T06:00:01;14.77;;;5.90;;
15114;SDS011;7658;51.456;7.622;2023-07-30T06:02:27;11.95;;;5.68;;
15114;SDS011;7658;51.456;7.622;2023-07-30T06:04:53;17.35;;;6.20;;
15114;SDS011;7658;51.456;7.622;2023-07-30T06:07:19;10.10;;;5.10;;
15114;SDS011;7658;51.456;7.622;2023-07-30T06:09:45;14.65;;;6.18;;
15114;SDS011;7658;51.456;7.622;2023-07-30T06:12:10;14.77;;;5.90;;
15114;SDS011;7658;51.456;7.622;2023-07-30T06:14:36;11.45;;;5.22;;
15114;SDS011;7658;51.456;7.622;2023-07-30T06:17:02;14.13;;;5.32;;
15114;SDS011;7658;51.456;7.622;2023-07-30T06:19:28;17.45;;;6.22;;
15114;SDS011;7658;51.456;7.622;2023-07-30T06:21:53;11.75;;;4.57;;
15114;SDS011;7658;51.456;7.622;2023-07-30T06:24:19;16.35;;;5.15;;
15114;SDS011;7658;51.456;7.622;2023-07-30T06:26:45;13.73;;;5.32;;
15114;SDS011;7658;51.456;7.622;2023-07-30T06:29:11;11.95;;;5.25;;
15114;SDS011;7658;51.456;7.622;2023-07-30T06:31:36;15.20;;;5.25;;
15114;SDS011;7658;51.456;7.622;2023-07-30T06:34:02;12.02;;;5.43;;
15114;SDS011;7658;51.456;7.622;2023-07-30T06:36:28;13.40;;;4.68;;
15114;SDS011;7658;51.456;7.622;2023-07-30T06:38:53;24.27;;;6.50;;
15114;SDS011;7658;51.456;7.622;2023-07-30T06:41:20;13.68;;;5.07;;
15114;SDS011;7658;51.456;7.622;2023-07-30T06:43:46;11.15;;;5.35;;
15114;SDS011;7658;51.456;7.622;2023-07-30T06:46:12;17.42;;;5.07;;
15114;SDS011;7658;51.456;7.622;2023-07-30T06:48:37;12.38;;;4.88;;
15114;SDS011;7658;51.456;7.622;2023-07-30T06:51:06;6.82;;;4.18;;
15114;SDS011;7658;51.456;7.622;2023-07-30T06:53:34;9.50;;;4.88;;
15114;SDS011;7658;51.456;7.622;2023-07-30T06:55:59;11.15;;;4.28;;
15114;SDS011;7658;51.456;7.622;2023-07-30T06:58:25;10.90;;;4.68;;
15114;SDS011;7658;51.456;7.622;2023-07-30T07:00:51;10.75;;;4.55;;
15114;SDS011;7658;51.456;7.622;2023-07-30T07:03:17;11.07;;;4.63;;
15114;SDS011;7658;51.456;7.622;2023-07-30T07:05:43;11.93;;;5.03;;
15114;SDS011;7658;51.456;7.622;2023-07-30T07:08:08;16.17;;;4.80;;
15114;SDS011;7658;51.456;7.622;2023-07-30T07:10:34;16.83;;;5.28;;
15114;SDS011;7658;51.456;7.622;2023-07-30T07:13:00;12.30;;;4.80;;
15114;SDS011;7658;51.456;7.622;2023-07-30T07:15:26;14.13;;;5.03;;
15114;SDS011;7658;51.456;7.622;2023-07-30T07:17:51;9.75;;;4.68;;
15114;SDS011;7658;51.456;7.622;2023-07-30T07:20:17;13.13;;;4.90;;
15114;SDS011;7658;51.456;7.622;2023-07-30T07:22:43;14.68;;;5.63;;
15114;SDS011;7658;51.456;7.622;2023-07-30T07:25:09;13.98;;;4.88;;
15114;SDS011;7658;51.456;7.622;2023-07-30T07:27:35;11.23;;;5.15;;
15114;SDS011;7658;51.456;7.622;2023-07-30T07:30:01;11.13;;;4.88;;
15114;SDS011;7658;51.456;7.622;2023-07-30T07:32:26;18.48;;;5.82;;
15114;SDS011;7658;51.456;7.622;2023-07-30T07:34:52;14.20;;;5.30;;
15114;SDS011;7658;51.456;7.622;2023-07-30T07:37:18;14.75;;;5.60;;
15114;SDS011;7658;51.456;7.622;2023-07-30T07:39:44;13.10;;;5.43;;
15114;SDS011;7658;51.456;7.622;2023-07-30T07:42:11;20.65;;;6.07;;
15114;SDS011;7658;51.456;7.622;2023-07-30T07:44:37;14.52;;;5.65;;
15114;SDS011;7658;51.456;7.622;2023-07-30T07:47:03;14.00;;;5.40;;
15114;SDS011;7658;51.456;7.622;2023-07-30T07:49:29;12.38;;;5.43;;
15114;SDS011;7658;51.456;7.622;2023-07-30T07:51:55;12.77;;;5.97;;
15114;SDS011;7658;51.456;7.622;2023-07-30T07:54:21;16.38;;;6.00;;
15114;SDS011;7658;51.456;7.622;2023-07-30T07:56:47;23.58;;;6.75;;
15114;SDS011;7658;51.456;7.622;2023-07-30T07:59:12;14.60;;;5.80;;
15114;SDS011;7658;51.456;7.622;2023-07-30T08:01:38;13.23;;;5.90;;
15114;SDS011;7658;51.456;7.622;2023-07-30T08:04:04;14.82;;;5.78;;
15114;SDS011;7658;51.456;7.622;2023-07-30T08:06:31;19.08;;;6.68;;
15114;SDS011;7658;51.456;7.622;2023-07-30T08:08:57;13.73;;;5.50;;
15114;SDS011;7658;51.456;7.622;2023-07-30T08:11:23;11.82;;;6.20;;
15114;SDS011;7658;51.456;7.622;2023-07-30T08:13:48;16.13;;;7.57;;
15114;SDS011;7658;51.456;7.622;2023-07-30T08:16:14;21.92;;;7.63;;
15114;SDS011;7658;51.456;7.622;2023-07-30T08:18:40;13.10;;;6.05;;
15114;SDS011;7658;51.456;7.622;2023-07-30T08:21:06;14.75;;;6.22;;
15114;SDS011;7658;51.456;7.622;2023-07-30T08:23:32;15.60;;;6.30;;
15114;SDS011;7658;51.456;7.622;2023-07-30T08:25:57;14.85;;;6.72;;
15114;SDS011;7658;51.456;7.622;2023-07-30T08:28:23;11.73;;;5.95;;
15114;SDS011;7658;51.456;7.622;2023-07-30T08:30:49;14.43;;;6.32;;
15114;SDS011;7658;51.456;7.622;2023-07-30T08:33:14;13.40;;;6.47;;
15114;SDS011;7658;51.456;7.622;2023-07-30T08:35:40;12.93;;;5.95;;
15114;SDS011;7658;51.456;7.622;2023-07-30T08:38:06;17.48;;;7.13;;
15114;SDS011;7658;51.456;7.622;2023-07-30T08:40:32;15.00;;;6.00;;
15114;SDS011;7658;51.456;7.622;2023-07-30T08:42:58;15.50;;;6.05;;
15114;SDS011;7658;51.456;7.622;2023-07-30T08:45:25;12.35;;;6.20;;
15114;SDS011;7658;51.456;7.622;2023-07-30T08:47:51;14.15;;;6.20;;
15114;SDS011;7658;51.456;7.622;2023-07-30T08:50:17;13.68;;;5.90;;
15114;SDS011;7658;51.456;7.622;2023-07-30T08:52:43;13.18;;;6.28;;
15114;SDS011;7658;51.456;7.622;2023-07-30T08:55:09;13.57;;;5.97;;
15114;SDS011;7658;51.456;7.622;2023-07-30T08:57:36;17.45;;;5.95;;
15114;SDS011;7658;51.456;7.622;2023-07-30T09:00:08;12.00;;;5.68;;
15114;SDS011;7658;51.456;7.622;2023-07-30T09:02:39;10.43;;;5.60;;
15114;SDS011;7658;51.456;7.622;2023-07-30T09:05:19;13.32;;;5.35;;
15114;SDS011;7658;51.456;7.622;2023-07-30T09:07:46;15.73;;;5.63;;
15114;SDS011;7658;51.456;7.622;2023-07-30T09:10:12;17.13;;;5.43;;
15114;SDS011;7658;51.456;7.622;2023-07-30T09:12:39;10.75;;;5.22;;
15114;SDS011;7658;51.456;7.622;2023-07-30T09:15:05;10.68;;;5.80;;
15114;SDS011;7658;51.456;7.622;2023-07-30T09:17:32;10.43;;;5.18;;
15114;SDS011;7658;51.456;7.622;2023-07-30T09:19:59;12.68;;;5.38;;
15114;SDS011;7658;51.456;7.622;2023-07-30T09:22:26;13.93;;;5.25;;
15114;SDS011;7658;51.456;7.622;2023-07-30T09:24:53;15.55;;;5.65;;
15114;SDS011;7658;51.456;7.622;2023-07-30T09:27:20;13.68;;;4.65;;
15114;SDS011;7658;51.456;7.622;2023-07-30T09:29:57;12.25;;;4.68;;
15114;SDS011;7658;51.456;7.622;2023-07-30T09:32:28;10.88;;;5.05;;
15114;SDS011;7658;51.456;7.622;2023-07-30T09:34:54;16.80;;;5.63;;
15114;SDS011;7658;51.456;7.622;2023-07-30T09:37:21;7.38;;;4.55;;
15114;SDS011;7658;51.456;7.622;2023-07-30T09:39:50;9.57;;;4.57;;
15114;SDS011;7658;51.456;7.622;2023-07-30T09:42:15;11.68;;;4.10;;
15114;SDS011;7658;51.456;7.622;2023-07-30T09:44:41;8.75;;;4.82;;
15114;SDS011;7658;51.456;7.622;2023-07-30T09:47:10;12.52;;;4.85;;
15114;SDS011;7658;51.456;7.622;2023-07-30T09:49:38;12.25;;;4.57;;
15114;SDS011;7658;51.456;7.622;2023-07-30T09:52:04;9.38;;;4.13;;
15114;SDS011;7658;51.456;7.622;2023-07-30T09:54:31;8.02;;;3.95;;
15114;SDS011;7658;51.456;7.622;2023-07-30T09:56:58;14.95;;;4.55;;
15114;SDS011;7658;51.456;7.622;2023-07-30T09:59:23;11.40;;;4.57;;
15114;SDS011;7658;51.456;7.622;2023-07-30T10:01:49;13.13;;;4.45;;
15114;SDS011;7658;51.456;7.622;2023-07-30T10:04:21;13.05;;;4.57;;
15114;SDS011;7658;51.456;7.622;2023-07-30T10:06:58;8.95;;;3.78;;
15114;SDS011;7658;51.456;7.622;2023-07-30T10:09:29;11.88;;;4.18;;
15114;SDS011;7658;51.456;7.622;2023-07-30T10:11:58;11.93;;;3.80;;
15114;SDS011;7658;51.456;7.622;2023-07-30T10:14:25;9.27;;;3.75;;
15114;SDS011;7658;51.456;7.622;2023-07-30T10:16:52;6.95;;;3.53;;
15114;SDS011;7658;51.456;7.622;2023-07-30T10:19:25;10.52;;;3.85;;
15114;SDS011;7658;51.456;7.622;2023-07-30T10:24:37;9.73;;;3.75;;
15114;SDS011;7658;51.456;7.622;2023-07-30T10:27:06;13.70;;;3.70;;
15114;SDS011;7658;51.456;7.622;2023-07-30T10:29:35;12.10;;;3.95;;
15114;SDS011;7658;51.456;7.622;2023-07-30T10:32:03;8.57;;;3.00;;
15114;SDS011;7658;51.456;7.622;2023-07-30T10:34:43;12.90;;;4.07;;
15114;SDS011;7658;51.456;7.622;2023-07-30T10:37:10;10.85;;;3.33;;
15114;SDS011;7658;51.456;7.622;2023-07-30T10:39:42;6.30;;;3.10;;
15114;SDS011;7658;51.456;7.622;2023-07-30T10:42:08;9.02;;;3.17;;
15114;SDS011;7658;51.456;7.622;2023-07-30T10:44:34;9.32;;;3.20;;
15114;SDS011;7658;51.456;7.622;2023-07-30T10:47:00;9.07;;;3.08;;
15114;SDS011;7658;51.456;7.622;2023-07-30T10:49:27;8.15;;;3.10;;
15114;SDS011;7658;51.456;7.622;2023-07-30T10:51:53;9.35;;;3.08;;
15114;SDS011;7658;51.456;7.622;2023-07-30T10:54:22;8.48;;;3.33;;
15114;SDS011;7658;51.456;7.622;2023-07-30T10:56:48;7.55;;;2.58;;
15114;SDS011;7658;51.456;7.622;2023-07-30T10:59:15;10.73;;;3.20;;
15114;SDS011;7658;51.456;7.622;2023-07-30T11:01:42;9.25;;;2.80;;
15114;SDS011;7658;51.456;7.622;2023-07-30T11:04:09;12.70;;;2.90;;
15114;SDS011;7658;51.456;7.622;2023-07-30T11:06:36;7.00;;;2.47;;
15114;SDS011;7658;51.456;7.622;2023-07-30T11:09:03;10.07;;;3.10;;
15114;SDS011;7658;51.456;7.622;2023-07-30T11:11:30;6.75;;;2.70;;
15114;SDS011;7658;51.456;7.622;2023-07-30T11:13:56;10.27;;;2.60;;
15114;SDS011;7658;51.456;7.622;2023-07-30T11:16:23;7.65;;;2.90;;
15114;SDS011;7658;51.456;7.622;2023-07-30T11:18:49;7.75;;;2.60;;
15114;SDS011;7658;51.456;7.622;2023-07-30T11:21:16;7.78;;;3.05;;
15114;SDS011;7658;51.456;7.622;2023-07-30T11:23:43;7.07;;;2.80;;
15114;SDS011;7658;51.456;7.622;2023-07-30T11:26:18;8.13;;;2.95;;
15114;SDS011;7658;51.456;7.622;2023-07-30T11:28:44;3.78;;;2.25;;
15114;SDS011;7658;51.456;7.622;2023-07-30T11:31:15;17.05;;;3.20;;
15114;SDS011;7658;51.456;7.622;2023-07-30T11:33:45;11.30;;;2.65;;
15114;SDS011;7658;51.456;7.622;2023-07-30T11:36:16;7.43;;;2.58;;
15114;SDS011;7658;51.456;7.622;2023-07-30T11:38:46;9.10;;;2.85;;
15114;SDS011;7658;51.456;7.622;2023-07-30T11:41:13;6.80;;;2.40;;
15114;SDS011;7658;51.456;7.622;2023-07-30T11:43:41;7.57;;;2.72;;
15114;SDS011;7658;51.456;7.622;2023-07-30T11:46:08;7.55;;;2.50;;
15114;SDS011;7658;51.456;7.622;2023-07-30T11:48:39;6.57;;;2.80;;
15114;SDS011;7658;51.456;7.622;2023-07-30T11:51:06;9.32;;;2.60;;
15114;SDS011;7658;51.456;7.622;2023-07-30T11:53:43;10.35;;;2.83;;
15114;SDS011;7658;51.456;7.622;2023-07-30T11:58:57;6.70;;;2.47;;
15114;SDS011;7658;51.456;7.622;2023-07-30T12:01:31;9.52;;;2.63;;
15114;SDS011;7658;51.456;7.622;2023-07-30T12:04:01;11.38;;;2.83;;
15114;SDS011;7658;51.456;7.622;2023-07-30T12:06:42;6.18;;;2.80;;
15114;SDS011;7658;51.456;7.622;2023-07-30T12:09:20;6.55;;;2.30;;
15114;SDS011;7658;51.456;7.622;2023-07-30T12:14:27;10.38;;;2.50;;
15114;SDS011;7658;51.456;7.622;2023-07-30T12:16:59;7.97;;;3.13;;
15114;SDS011;7658;51.456;7.622;2023-07-30T12:19:25;8.75;;;2.72;;
15114;SDS011;7658;51.456;7.622;2023-07-30T12:21:51;7.57;;;2.40;;
15114;SDS011;7658;51.456;7.622;2023-07-30T12:24:17;6.13;;;2.80;;
15114;SDS011;7658;51.456;7.622;2023-07-30T12:26:42;8.65;;;2.70;;
15114;SDS011;7658;51.456;7.622;2023-07-30T12:29:08;7.03;;;2.90;;
15114;SDS011;7658;51.456;7.622;2023-07-30T12:31:34;6.97;;;3.08;;
15114;SDS011;7658;51.456;7.622;2023-07-30T12:34:00;5.68;;;2.40;;
15114;SDS011;7658;51.456;7.622;2023-07-30T12:36:25;7.68;;;2.75;;
15114;SDS011;7658;51.456;7.622;2023-07-30T12:38:51;12.48;;;2.90;;
15114;SDS011;7658;51.456;7.622;2023-07-30T12:41:19;5.68;;;2.53;;
15114;SDS011;7658;51.456;7.622;2023-07-30T12:43:51;5.60;;;2.30;;
15114;SDS011;7658;51.456;7.622;2023-07-30T12:46:22;10.15;;;2.60;;
15114;SDS011;7658;51.456;7.622;2023-07-30T12:48:48;7.68;;;2.70;;
15114;SDS011;7658;51.456;7.622;2023-07-30T12:51:14;5.25;;;2.78;;
15114;SDS011;7658;51.456;7.622;2023-07-30T12:53:39;16.10;;;2.90;;
15114;SDS011;7658;51.456;7.622;2023-07-30T12:56:06;6.22;;;2.50;;
15114;SDS011;7658;51.456;7.622;2023-07-30T12:58:32;8.52;;;2.05;;
15114;SDS011;7658;51.456;7.622;2023-07-30T13:00:57;6.82;;;2.40;;
15114;SDS011;7658;51.456;7.622;2023-07-30T13:03:23;3.50;;;1.85;;
15114;SDS011;7658;51.456;7.622;2023-07-30T13:05:49;4.53;;;2.00;;
15114;SDS011;7658;51.456;7.622;2023-07-30T13:08:14;6.07;;;2.05;;
15114;SDS011;7658;51.456;7.622;2023-07-30T13:10:40;7.50;;;2.47;;
15114;SDS011;7658;51.456;7.622;2023-07-30T13:13:06;6.63;;;2.40;;
15114;SDS011;7658;51.456;7.622;2023-07-30T13:15:32;4.30;;;2.05;;
15114;SDS011;7658;51.456;7.622;2023-07-30T13:17:57;7.18;;;2.30;;
15114;SDS011;7658;51.456;7.622;2023-07-30T13:20:23;9.55;;;3.30;;
15114;SDS011;7658;51.456;7.622;2023-07-30T13:22:52;6.57;;;2.42;;
15114;SDS011;7658;51.456;7.622;2023-07-30T13:25:18;5.38;;;2.45;;
15114;SDS011;7658;51.456;7.622;2023-07-30T13:27:45;8.63;;;2.42;;
15114;SDS011;7658;51.456;7.622;2023-07-30T13:30:11;6.38;;;2.38;;
15114;SDS011;7658;51.456;7.622;2023-07-30T13:32:37;5.88;;;2.30;;
15114;SDS011;7658;51.456;7.622;2023-07-30T13:35:02;6.45;;;2.50;;
15114;SDS011;7658;51.456;7.622;2023-07-30T13:37:28;6.18;;;2.58;;
15114;SDS011;7658;51.456;7.622;2023-07-30T13:39:54;5.90;;;2.25;;
15114;SDS011;7658;51.456;7.622;2023-07-30T13:42:20;5.78;;;2.65;;
15114;SDS011;7658;51.456;7.622;2023-07-30T13:44:45;4.53;;;2.40;;
15114;SDS011;7658;51.456;7.622;2023-07-30T13:47:11;3.97;;;2.05;;
15114;SDS011;7658;51.456;7.622;2023-07-30T13:49:37;4.28;;;1.60;;
15114;SDS011;7658;51.456;7.622;2023-07-30T13:52:03;2.30;;;1.40;;
15114;SDS011;7658;51.456;7.622;2023-07-30T13:54:28;4.53;;;2.47;;
15114;SDS011;7658;51.456;7.622;2023-07-30T13:56:54;2.88;;;1.50;;
15114;SDS011;7658;51.456;7.622;2023-07-30T13:59:20;3.38;;;1.98;;
15114;SDS011;7658;51.456;7.622;2023-07-30T14:01:45;4.55;;;1.92;;
15114;SDS011;7658;51.456;7.622;2023-07-30T14:04:11;5.78;;;2.25;;
15114;SDS011;7658;51.456;7.622;2023-07-30T14:06:37;3.63;;;2.42;;
15114;SDS011;7658;51.456;7.622;2023-07-30T14:09:03;10.38;;;1.70;;
15114;SDS011;7658;51.456;7.622;2023-07-30T14:11:29;4.75;;;2.20;;
15114;SDS011;7658;51.456;7.622;2023-07-30T14:13:55;6.43;;;1.83;;
15114;SDS011;7658;51.456;7.622;2023-07-30T14:16:22;7.07;;;2.08;;
15114;SDS011;7658;51.456;7.622;2023-07-30T14:18:48;3.80;;;1.70;;
15114;SDS011;7658;51.456;7.622;2023-07-30T14:21:14;7.07;;;2.00;;
15114;SDS011;7658;51.456;7.622;2023-07-30T14:23:40;5.03;;;2.08;;
15114;SDS011;7658;51.456;7.622;2023-07-30T14:26:05;3.35;;;1.70;;
15114;SDS011;7658;51.456;7.622;2023-07-30T14:28:32;4.13;;;2.13;;
15114;SDS011;7658;51.456;7.622;2023-07-30T14:30:57;5.38;;;2.10;;
15114;SDS011;7658;51.456;7.622;2023-07-30T14:33:23;3.30;;;1.77;;
15114;SDS011;7658;51.456;7.622;2023-07-30T14:35:49;5.15;;;2.05;;
15114;SDS011;7658;51.456;7.622;2023-07-30T14:38:15;5.43;;;1.90;;
15114;SDS011;7658;51.456;7.622;2023-07-30T14:40:42;5.13;;;2.00;;
15114;SDS011;7658;51.456;7.622;2023-07-30T14:43:08;3.33;;;1.95;;
15114;SDS011;7658;51.456;7.622;2023-07-30T14:45:33;6.18;;;2.05;;
15114;SDS011;7658;51.456;7.622;2023-07-30T14:47:59;4.78;;;2.10;;
15114;SDS011;7658;51.456;7.622;2023-07-30T14:50:26;7.45;;;2.38;;
15114;SDS011;7658;51.456;7.622;2023-07-30T14:52:52;7.43;;;1.83;;
15114;SDS011;7658;51.456;7.622;2023-07-30T14:55:18;4.82;;;2.00;;
15114;SDS011;7658;51.456;7.622;2023-07-30T14:57:44;5.00;;;2.08;;
15114;SDS011;7658;51.456;7.622;2023-07-30T15:00:10;7.28;;;2.13;;
15114;SDS011;7658;51.456;7.622;2023-07-30T15:02:38;10.20;;;2.17;;